Report METAR

 

KSJC - San Jose, California, USA
Distance from station: NE 14km
Dati ricevuti: 05/12/2022 17:53
Pioviggine, Nuvoloso
Pioviggine, Nuvoloso
 Vento da SE
Vento: SE 11 km/h
Temperatura: 12°C
P.to Rugiada: 9°C
Umidità: 82%
Barometro: 1017.9 hPa
Summary: Pioviggine
Nuvole: Molto nuvoloso
Visibility: 16 km
Cloud details: Few Clouds 396 m
Parz. nuvoloso 853 m
Molto nuvoloso 1097 m
2022/12/05 16:53 KSJC 051653Z 14006KT 10SM -RA FEW013 SCT028 BKN036 12/09 A3006 RMK AO2 RAB41 SLP179 P0000 T01170094 $
KNUQ - Moffett Nas/Mtn, California, USA
Distance from station: N 14km
Dati ricevuti: 05/12/2022 17:55
Molto nuvoloso
Molto nuvoloso
 Vento da SSE
Vento: SSE 9 km/h
Temperatura: 11°C
P.to Rugiada: 10°C
Umidità: 94%
Barometro: 1017.9 hPa
Nuvole: Molto nuvoloso
Visibility: 16 km
Cloud details: Few Clouds 762 m
Parz. nuvoloso 1311 m
Molto nuvoloso 1676 m
2022/12/05 16:55 KNUQ 051655Z AUTO 15005KT 10SM FEW025 SCT043 BKN055 11/10 A3006 RMK AO2
KPAO - Palo Alto, California, USA
Distance from station: NNO 23km
Dati ricevuti: 05/12/2022 17:47
Parz. nuvoloso
Parz. nuvoloso
 Vento da SSE
Vento: SSE 13 km/h
Temperatura: 11°C
P.to Rugiada: 9°C
Umidità: 88%
Barometro: 1017.9 hPa
Nuvole: Parz. nuvoloso
Visibility: 16 km
Cloud details: Parz. nuvoloso 762 m
2022/12/05 16:47 KPAO 051647Z 15007KT 10SM SCT025 11/09 A3006
 
KRHV - San Jose/Reid, California, USA
Distance from station: ENE 19km
Dati ricevuti: 05/12/2022 17:52
Molto nuvoloso
Molto nuvoloso
 Vento da SE
Vento: SE 7 km/h
Temperatura: 12°C
P.to Rugiada: 9°C
Umidità: 82%
Barometro: 1018.3 hPa
Nuvole: Molto nuvoloso
Visibility: 16 km
Cloud details: Parz. nuvoloso 914 m
Molto nuvoloso 1829 m
2022/12/05 16:52 KRHV 051652Z 14004KT 10SM SCT030 BKN060 12/09 A3007
KOAK - Oakland, California, USA
Distance from station: NNO 50km
Dati ricevuti: 05/12/2022 17:53
Molto nuvoloso
Molto nuvoloso
 Vento da SSE
Vento: SSE 20 km/h
Temperatura: 11°C
P.to Rugiada: 9°C
Umidità: 88%
Barometro: 1017.9 hPa
Nuvole: Molto nuvoloso
Visibility: 16 km
Cloud details: Few Clouds 274 m
Molto nuvoloso 671 m
Molto nuvoloso 884 m
2022/12/05 16:53 KOAK 051653Z 15011KT 10SM FEW009 BKN022 BKN029 11/09 A3006 RMK AO2 SLP179 T01110094
KSQL - San Carlos Airpo, California, USA
Distance from station: NO 34km
Dati ricevuti: 05/12/2022 17:47
Molto nuvoloso
Molto nuvoloso
 Vento da ESE
Vento: ESE 9 km/h
Temperatura: 11°C
P.to Rugiada: 10°C
Umidità: 94%
Barometro: 1017.9 hPa
Nuvole: Molto nuvoloso
Visibility: 16 km
Cloud details: Parz. nuvoloso 762 m
Molto nuvoloso 2286 m
2022/12/05 16:47 KSQL 051647Z 12005KT 10SM SCT025 BKN075 11/10 A3006
 
KSFO - San Francisco, California, USA
Distance from station: NO 49km
Dati ricevuti: 05/12/2022 17:56
Molto nuvoloso
Molto nuvoloso
 Vento da SO
Vento: SO 15 km/h
Temperatura: 13°C
P.to Rugiada: 10°C
Umidità: 82%
Barometro: 1017.3 hPa
Nuvole: Molto nuvoloso
Visibility: 16 km
Cloud details: Parz. nuvoloso 1372 m
Molto nuvoloso 2286 m
2022/12/05 16:56 KSFO 051656Z 23008KT 10SM SCT045 BKN075 13/10 A3004 RMK AO2 SLP173 T01330100
KE16 - San Martin, California, USA
Distance from station: ESE 43km
Dati ricevuti: 05/12/2022 17:55
Coperto
Coperto
 Vento da SSE
Vento: SSE 7 km/h
Temperatura: 9°C
Temperatura Vento: 8°C
P.to Rugiada: 9°C
Umidità: 100%
Barometro: 1019.3 hPa
Nuvole: Coperto
Visibility: 16 km
Cloud details: Molto nuvoloso 975 m
Molto nuvoloso 1158 m
Coperto 1402 m
2022/12/05 16:55 KE16 051655Z AUTO 16004KT 10SM BKN032 BKN038 OVC046 09/09 A3010 RMK AO2 PWINO PNO
KWVI - Watsonville, California, USA
Distance from station: SSE 44km
Dati ricevuti: 05/12/2022 18:02
Pioviggine, Mist, Coperto
Pioviggine, Mist, Coperto
 Vento da SSE
Vento: SSE 7 km/h
Temperatura: 8°C
Temperatura Vento: 7°C
P.to Rugiada: 8°C
Umidità: 100%
Barometro: 1019 hPa
Summary: Pioviggine, Mist
Nuvole: Coperto
Visibility: 4 km
Cloud details: Molto nuvoloso 640 m
Coperto 914 m
2022/12/05 17:02 KWVI 051702Z AUTO 15004KT 2 1/2SM -RA BR BKN021 OVC030 08/08 A3009 RMK AO2 P0001 T00830083
 
KHAF - Half Moon Bay, California, USA
Distance from station: ONO 50km
Dati ricevuti: 05/12/2022 17:55
Mist, Coperto
Mist, Coperto
 
Temperatura: 13°C
P.to Rugiada: 13°C
Umidità: 100%
Barometro: 1017.9 hPa
Summary: Mist
Nuvole: Coperto
Visibility: 6 km
Cloud details: Molto nuvoloso 1524 m
Coperto 1829 m
2022/12/05 16:55 KHAF 051655Z AUTO 4SM BR BKN050 OVC060 13/13 A3006 RMK AO2
KHWD - Hayward, California, USA
Distance from station: N 44km
Dati ricevuti: 05/12/2022 17:54
Molto nuvoloso
Molto nuvoloso
 Vento da SSE
Vento: SSE 15 km/h
Temperatura: 11°C
P.to Rugiada: 9°C
Umidità: 88%
Barometro: 1017.6 hPa
Nuvole: Molto nuvoloso
Visibility: 16 km
Cloud details: Molto nuvoloso 701 m
Molto nuvoloso 1036 m
2022/12/05 16:54 KHWD 051654Z 15008KT 10SM BKN023 BKN034 11/09 A3005 RMK AO2 SLP185 T01110094
KLVK - Livermore, California, USA
Distance from station: NNE 51km
Dati ricevuti: 05/12/2022 17:53
Molto nuvoloso
Molto nuvoloso
 Vento da SSO
Vento: SSO 11 km/h
Temperatura: 12°C
P.to Rugiada: 8°C
Umidità: 77%
Barometro: 1017.3 hPa
Nuvole: Molto nuvoloso
Visibility: 16 km
Cloud details: Parz. nuvoloso 1189 m
Molto nuvoloso 1494 m
2022/12/05 16:53 KLVK 051653Z AUTO 21006KT 10SM SCT039 BKN049 12/08 A3004 RMK AO2 SLP172 T01170083 $